Time;durP1;ratioP1;P1;durP2;ratioP2;P2;SDS_P1;SDS_P2;PMS_P1;PMS_P2;Temp;Humidity;BMP_temperature;BMP_pressure;BME280_temperature;BME280_humidity;BME280_pressure;Samples;Min_cycle;Max_cycle;Signal;HPM_P1;HPM_P2
2021/04/05 00:00:21;;;;;;;5.88;1.80;;;14.40;39.40;;;;;;5033026;28;20407;-68
2021/04/05 00:02:47;;;;;;;3.95;1.83;;;14.50;39.20;;;;;;5033203;28;20479;-69
2021/04/05 00:05:20;;;;;;;4.50;1.90;;;14.50;39.20;;;;;;5032880;28;20480;-67
2021/04/05 00:07:47;;;;;;;4.40;1.85;;;14.40;39.30;;;;;;5032999;28;20104;-68
2021/04/05 00:10:21;;;;;;;4.80;1.92;;;14.40;39.70;;;;;;5031568;28;20386;-68
2021/04/05 00:12:48;;;;;;;4.30;1.98;;;14.40;38.70;;;;;;5032989;28;20045;-67
2021/04/05 00:15:14;;;;;;;3.55;1.70;;;14.30;39.70;;;;;;5032926;28;20021;-68
2021/04/05 00:17:41;;;;;;;4.65;1.92;;;14.30;39.70;;;;;;5033344;28;20068;-67
2021/04/05 00:20:29;;;;;;;3.72;1.67;;;14.20;39.60;;;;;;5036745;28;20018;-67
2021/04/05 00:22:55;;;;;;;4.20;1.90;;;14.10;39.90;;;;;;5036509;28;20033;-68
2021/04/05 00:25:21;;;;;;;5.82;1.95;;;14.10;39.60;;;;;;5036666;28;20034;-68
2021/04/05 00:27:47;;;;;;;5.18;2.17;;;14.00;39.70;;;;;;5036677;28;20028;-67
2021/04/05 00:30:26;;;;;;;4.10;2.00;;;14.00;39.90;;;;;;5036434;28;20436;-67
2021/04/05 00:32:53;;;;;;;4.47;2.05;;;13.90;40.20;;;;;;5036782;28;20108;-68
2021/04/05 00:35:21;;;;;;;3.63;2.00;;;13.90;40.40;;;;;;5036460;28;20028;-68
2021/04/05 00:37:49;;;;;;;5.60;2.22;;;13.90;40.50;;;;;;5036520;28;20017;-70
2021/04/05 00:40:17;;;;;;;10.15;2.85;;;13.80;40.70;;;;;;5036138;28;20029;-73
2021/04/05 00:42:44;;;;;;;5.22;2.03;;;13.90;41.20;;;;;;5036132;28;20486;-71
2021/04/05 00:45:12;;;;;;;5.82;2.40;;;14.10;41.30;;;;;;5034817;28;20394;-71
2021/04/05 00:47:39;;;;;;;5.00;2.28;;;14.00;41.60;;;;;;5036255;28;20080;-71
2021/04/05 00:50:10;;;;;;;5.30;2.42;;;14.00;42.10;;;;;;5036000;28;20074;-72
2021/04/05 00:52:37;;;;;;;6.88;2.67;;;14.10;42.30;;;;;;5036228;28;20060;-70
2021/04/05 00:55:08;;;;;;;7.97;2.75;;;14.00;42.30;;;;;;5036299;28;20025;-70
2021/04/05 00:57:37;;;;;;;5.13;2.42;;;14.00;42.20;;;;;;5036139;28;20033;-70
2021/04/05 01:00:15;;;;;;;5.63;2.42;;;13.90;42.70;;;;;;5036054;28;20033;-71
2021/04/05 01:02:41;;;;;;;7.15;2.38;;;13.90;43.00;;;;;;5035882;28;20029;-71
2021/04/05 01:05:08;;;;;;;5.97;2.63;;;13.90;43.20;;;;;;5035710;28;20034;-70
2021/04/05 01:07:35;;;;;;;6.80;2.55;;;13.90;43.20;;;;;;5036105;28;20087;-70
2021/04/05 01:10:01;;;;;;;4.30;2.13;;;14.00;43.10;;;;;;5035796;28;20026;-71
2021/04/05 01:12:26;;;;;;;5.88;2.47;;;13.90;43.00;;;;;;5035951;28;20030;-70
2021/04/05 01:14:52;;;;;;;8.77;2.60;;;13.70;43.10;;;;;;5035780;28;20029;-72
2021/04/05 01:17:18;;;;;;;4.68;2.30;;;13.60;43.10;;;;;;5034230;28;20045;-73
2021/04/05 01:19:43;;;;;;;5.78;2.20;;;13.70;43.70;;;;;;5035491;28;20018;-67
2021/04/05 01:22:09;;;;;;;5.47;2.38;;;13.60;43.50;;;;;;5035413;28;20455;-68
2021/04/05 01:24:35;;;;;;;10.13;2.50;;;13.60;43.80;;;;;;5035514;28;20356;-68
2021/04/05 01:27:01;;;;;;;4.38;2.45;;;13.60;43.70;;;;;;5035587;28;20021;-68
2021/04/05 01:29:27;;;;;;;6.93;2.63;;;13.60;44.00;;;;;;5034648;28;20029;-66
2021/04/05 01:31:52;;;;;;;8.27;2.53;;;13.40;43.80;;;;;;5035147;28;20531;-67
2021/04/05 01:34:18;;;;;;;6.03;2.60;;;13.40;43.90;;;;;;5035514;28;20024;-66
2021/04/05 01:36:44;;;;;;;8.18;3.20;;;13.30;44.40;;;;;;5035305;28;20030;-66
2021/04/05 01:39:09;;;;;;;7.93;2.60;;;13.30;44.60;;;;;;5035499;28;20033;-66
2021/04/05 01:41:35;;;;;;;8.50;2.60;;;13.50;44.80;;;;;;5033780;28;20021;-68
2021/04/05 01:44:01;;;;;;;5.47;2.50;;;13.60;44.60;;;;;;5035089;28;20037;-67
2021/04/05 01:46:29;;;;;;;6.05;2.58;;;13.70;45.00;;;;;;5035080;28;20467;-68
2021/04/05 01:48:58;;;;;;;7.78;2.40;;;13.80;44.90;;;;;;5035468;28;20056;-67
2021/04/05 01:51:24;;;;;;;5.03;2.22;;;13.90;44.60;;;;;;5035077;28;20018;-68
2021/04/05 01:53:51;;;;;;;6.20;2.40;;;13.80;44.80;;;;;;5035027;28;20061;-67
2021/04/05 01:56:19;;;;;;;5.47;2.28;;;13.90;44.90;;;;;;5034894;28;20018;-68
2021/04/05 01:58:47;;;;;;;7.63;2.50;;;13.80;44.80;;;;;;5034926;28;20036;-66
2021/04/05 02:01:24;;;;;;;4.68;2.00;;;13.80;44.90;;;;;;5035027;28;20030;-66
2021/04/05 02:03:51;;;;;;;5.47;2.47;;;14.00;45.30;;;;;;5034667;28;20038;-67
2021/04/05 02:06:23;;;;;;;4.30;2.20;;;14.00;44.60;;;;;;5034718;28;20017;-67
2021/04/05 02:08:49;;;;;;;9.20;2.60;;;13.80;44.40;;;;;;5034851;28;20394;-67
2021/04/05 02:11:36;;;;;;;7.90;3.22;;;13.60;44.70;;;;;;5034664;28;20463;-67
2021/04/05 02:14:04;;;;;;;7.20;2.42;;;13.70;45.50;;;;;;5033168;28;20029;-67
2021/04/05 02:16:30;;;;;;;7.90;2.60;;;13.80;45.00;;;;;;5034516;28;20390;-67
2021/04/05 02:18:58;;;;;;;6.40;2.22;;;13.80;44.70;;;;;;5034475;28;20026;-67
2021/04/05 02:21:26;;;;;;;4.72;2.35;;;13.50;44.50;;;;;;5034486;28;20025;-69
2021/04/05 02:23:54;;;;;;;4.85;2.05;;;13.50;44.80;;;;;;5034489;28;20308;-67
2021/04/05 02:26:22;;;;;;;4.85;2.20;;;13.50;44.80;;;;;;5033229;28;20079;-67
2021/04/05 02:28:51;;;;;;;5.55;2.30;;;13.50;44.90;;;;;;5034459;28;20109;-67
2021/04/05 02:31:19;;;;;;;5.60;2.35;;;13.50;45.20;;;;;;5034129;28;20429;-69
2021/04/05 02:33:47;;;;;;;5.47;2.20;;;13.50;45.10;;;;;;5034235;28;20032;-67
2021/04/05 02:36:15;;;;;;;10.05;2.35;;;13.50;45.90;;;;;;5032882;28;20057;-67
2021/04/05 02:38:44;;;;;;;4.65;2.20;;;13.50;45.10;;;;;;5033962;28;20033;-67
2021/04/05 02:41:12;;;;;;;5.68;1.98;;;13.40;45.00;;;;;;5033757;28;20032;-67
2021/04/05 02:43:38;;;;;;;4.40;1.98;;;13.40;45.20;;;;;;5033950;28;20048;-68
2021/04/05 02:46:05;;;;;;;5.68;2.10;;;13.40;45.20;;;;;;5033979;28;20028;-68
2021/04/05 02:48:35;;;;;;;5.68;2.20;;;13.40;45.00;;;;;;5033861;28;20501;-67
2021/04/05 02:51:06;;;;;;;4.90;1.63;;;13.40;44.90;;;;;;5033836;28;20083;-68
2021/04/05 02:53:35;;;;;;;4.30;1.80;;;13.40;44.70;;;;;;5033891;28;20025;-68
2021/04/05 02:56:05;;;;;;;6.30;1.95;;;13.40;44.90;;;;;;5033622;28;20036;-68
2021/04/05 02:58:32;;;;;;;7.28;2.38;;;13.40;44.70;;;;;;5033898;28;20482;-68
2021/04/05 03:00:58;;;;;;;5.88;1.75;;;13.30;44.30;;;;;;5033459;28;20025;-67
2021/04/05 03:03:25;;;;;;;10.13;1.98;;;13.30;44.60;;;;;;5033559;28;20029;-67
2021/04/05 03:05:51;;;;;;;6.13;1.70;;;13.40;44.70;;;;;;5033801;28;20021;-68
2021/04/05 03:08:17;;;;;;;4.35;1.80;;;13.40;44.80;;;;;;5033470;28;20043;-68
2021/04/05 03:10:43;;;;;;;6.03;1.90;;;13.30;44.50;;;;;;5033517;28;20120;-68
2021/04/05 03:13:10;;;;;;;6.72;2.00;;;13.30;44.60;;;;;;5033468;28;20521;-68
2021/04/05 03:15:36;;;;;;;4.38;1.73;;;13.30;44.40;;;;;;5033683;28;20029;-67
2021/04/05 03:18:06;;;;;;;5.22;2.08;;;13.30;44.00;;;;;;5033044;28;20053;-67
2021/04/05 03:20:34;;;;;;;4.60;1.85;;;13.30;44.10;;;;;;5033154;28;20022;-68
2021/04/05 03:23:01;;;;;;;5.18;1.70;;;13.20;43.80;;;;;;5033542;28;20029;-68
2021/04/05 03:25:27;;;;;;;5.53;2.08;;;13.20;44.10;;;;;;5033320;28;20033;-67
2021/04/05 03:27:54;;;;;;;6.65;2.22;;;13.10;43.80;;;;;;5031981;28;20040;-68
2021/04/05 03:30:31;;;;;;;5.15;1.80;;;13.00;43.70;;;;;;5033139;28;20032;-68
2021/04/05 03:33:19;;;;;;;3.60;1.73;;;13.00;44.30;;;;;;5033080;28;20028;-68
2021/04/05 03:35:51;;;;;;;3.35;1.60;;;13.00;44.40;;;;;;5033171;28;20026;-67
2021/04/05 03:38:18;;;;;;;4.78;1.80;;;13.10;43.70;;;;;;5033188;28;20024;-69
2021/04/05 03:40:44;;;;;;;5.18;2.15;;;13.00;43.60;;;;;;5032914;28;20033;-67
2021/04/05 03:43:30;;;;;;;7.43;2.20;;;13.00;43.60;;;;;;5032894;28;20065;-68
2021/04/05 03:45:59;;;;;;;4.13;1.98;;;13.00;43.50;;;;;;5033168;28;20068;-70
2021/04/05 03:48:35;;;;;;;3.65;1.58;;;12.90;43.50;;;;;;5033151;28;20058;-72
2021/04/05 03:51:07;;;;;;;4.47;1.95;;;12.70;43.20;;;;;;5033020;28;20041;-70
2021/04/05 03:53:46;;;;;;;4.93;1.83;;;12.70;43.90;;;;;;5034931;28;20584;-71
2021/04/05 03:56:15;;;;;;;5.10;2.30;;;12.70;43.90;;;;;;5037371;28;20022;-70
2021/04/05 03:58:49;;;;;;;5.38;2.13;;;12.70;43.70;;;;;;5037268;28;20091;-68
2021/04/05 04:01:20;;;;;;;4.18;1.92;;;12.60;44.10;;;;;;5036842;28;20025;-69
2021/04/05 04:04:03;;;;;;;6.90;2.17;;;12.50;43.70;;;;;;5036985;28;20490;-71
2021/04/05 04:09:19;;;;;;;6.30;1.90;;;12.60;43.80;;;;;;5045819;28;20043;-70
2021/04/05 04:11:49;;;;;;;4.38;2.00;;;12.60;43.70;;;;;;5037185;28;20021;-72
2021/04/05 04:14:16;;;;;;;5.40;1.80;;;12.60;43.80;;;;;;5036714;28;20538;-71
2021/04/05 04:16:43;;;;;;;4.57;2.03;;;12.60;43.80;;;;;;5036851;28;20437;-71
2021/04/05 04:19:10;;;;;;;6.32;1.90;;;12.50;43.80;;;;;;5036682;28;20095;-67
2021/04/05 04:21:37;;;;;;;4.57;1.75;;;12.70;44.00;;;;;;5036730;28;20056;-68
2021/04/05 04:24:04;;;;;;;5.35;1.95;;;12.80;43.90;;;;;;5036709;28;20045;-67
2021/04/05 04:26:34;;;;;;;4.80;1.77;;;12.70;43.60;;;;;;5036415;28;20108;-68
2021/04/05 04:29:00;;;;;;;7.65;2.05;;;12.80;43.80;;;;;;5036361;28;20040;-67
2021/04/05 04:31:26;;;;;;;3.08;1.55;;;12.80;43.90;;;;;;5036226;28;20018;-67
2021/04/05 04:33:52;;;;;;;5.90;1.92;;;12.80;43.90;;;;;;5036561;28;20502;-67
2021/04/05 04:36:22;;;;;;;6.57;2.42;;;12.80;43.90;;;;;;5036339;28;20022;-68
2021/04/05 04:38:53;;;;;;;6.10;2.00;;;12.60;43.80;;;;;;5036387;28;20367;-68
2021/04/05 04:41:23;;;;;;;4.38;1.95;;;12.50;44.70;;;;;;5036070;28;20039;-67
2021/04/05 04:44:00;;;;;;;3.60;1.73;;;12.60;44.80;;;;;;5034726;28;20072;-67
2021/04/05 04:46:26;;;;;;;3.50;1.98;;;12.70;44.50;;;;;;5036324;28;20025;-67
2021/04/05 04:49:00;;;;;;;4.63;1.95;;;12.60;44.20;;;;;;5036203;28;20087;-67
2021/04/05 04:51:26;;;;;;;6.13;2.03;;;12.60;44.40;;;;;;5036196;28;20406;-67
2021/04/05 04:54:00;;;;;;;6.20;2.28;;;12.50;44.60;;;;;;5035642;28;20078;-67
2021/04/05 04:56:26;;;;;;;7.97;2.00;;;12.40;44.60;;;;;;5035703;28;20022;-67
2021/04/05 04:58:57;;;;;;;6.97;1.80;;;12.50;44.60;;;;;;5035991;28;20022;-68
2021/04/05 05:01:24;;;;;;;6.70;2.25;;;12.60;44.50;;;;;;5035924;28;20026;-69
2021/04/05 05:03:53;;;;;;;6.65;2.25;;;12.60;44.40;;;;;;5035180;28;20350;-68
2021/04/05 05:06:21;;;;;;;4.68;2.08;;;12.60;44.30;;;;;;5035227;28;20489;-67
2021/04/05 05:08:47;;;;;;;3.38;1.63;;;12.60;44.40;;;;;;5018017;28;20035;-68
2021/04/05 05:11:14;;;;;;;5.93;1.88;;;12.50;44.10;;;;;;5035486;28;20029;-67
2021/04/05 05:13:40;;;;;;;6.40;2.00;;;12.70;44.10;;;;;;5035642;28;20390;-67
2021/04/05 05:16:06;;;;;;;3.80;2.05;;;12.60;44.10;;;;;;5035549;28;20021;-68
2021/04/05 05:18:34;;;;;;;6.72;2.50;;;12.70;44.10;;;;;;5035359;28;20038;-68
2021/04/05 05:21:07;;;;;;;4.75;1.92;;;12.60;43.80;;;;;;5049013;22;20053;-69
2021/04/05 05:23:36;;;;;;;3.50;1.73;;;12.70;43.80;;;;;;5035783;28;20033;-70
2021/04/05 05:26:04;;;;;;;6.05;1.85;;;12.70;43.60;;;;;;5035808;28;20033;-73
2021/04/05 05:28:33;;;;;;;4.82;1.90;;;12.70;43.50;;;;;;5035859;28;20112;-70
2021/04/05 05:31:00;;;;;;;4.70;1.83;;;12.70;43.60;;;;;;5035572;28;20064;-69
2021/04/05 05:33:26;;;;;;;5.72;2.28;;;12.70;43.40;;;;;;5035660;28;20095;-70
2021/04/05 05:35:52;;;;;;;11.63;2.25;;;12.80;43.70;;;;;;5035952;28;20037;-70
2021/04/05 05:38:22;;;;;;;4.40;2.05;;;12.80;43.60;;;;;;5035700;28;20032;-73
2021/04/05 05:40:49;;;;;;;4.38;1.83;;;12.90;43.40;;;;;;5035290;28;20033;-69
2021/04/05 05:43:35;;;;;;;5.55;1.90;;;12.90;43.40;;;;;;5035421;28;20036;-69
2021/04/05 05:46:20;;;;;;;5.40;1.77;;;12.90;43.70;;;;;;5035494;28;20026;-72
2021/04/05 05:49:01;;;;;;;6.43;1.88;;;12.90;43.20;;;;;;5035453;28;20143;-69
2021/04/05 05:51:56;;;;;;;4.25;2.05;;;12.90;43.40;;;;;;5035504;28;20462;-70
2021/04/05 05:54:44;;;;;;;4.47;1.80;;;13.00;43.40;;;;;;5030415;28;20032;-73
2021/04/05 05:57:15;;;;;;;5.10;2.10;;;13.10;43.10;;;;;;5034963;28;20455;-69
2021/04/05 05:59:59;;;;;;;5.22;2.17;;;13.20;43.30;;;;;;5035033;28;20025;-73
2021/04/05 06:02:34;;;;;;;5.28;2.17;;;13.30;42.90;;;;;;5035210;28;20017;-71
2021/04/05 06:05:31;;;;;;;4.53;1.67;;;13.30;42.80;;;;;;5033775;28;20030;-71
2021/04/05 06:08:24;;;;;;;6.78;2.17;;;13.50;42.80;;;;;;5034970;28;20029;-72
2021/04/05 06:10:59;;;;;;;11.70;2.45;;;13.70;42.00;;;;;;5034829;28;20050;-73
2021/04/05 06:13:50;;;;;;;4.57;2.13;;;13.80;42.50;;;;;;5035007;28;20034;-70
2021/04/05 06:16:34;;;;;;;5.65;1.80;;;13.80;42.20;;;;;;5034381;28;20283;-72
2021/04/05 06:18:59;;;;;;;5.97;1.88;;;14.00;42.00;;;;;;5033240;28;20033;-74
2021/04/05 06:21:40;;;;;;;5.13;2.38;;;14.10;42.50;;;;;;5034303;28;20060;-71
2021/04/05 06:24:22;;;;;;;8.07;1.77;;;14.20;41.60;;;;;;5034836;28;20032;-71
2021/04/05 06:26:54;;;;;;;7.85;2.20;;;14.50;42.40;;;;;;5035086;28;20437;-71
2021/04/05 06:29:35;;;;;;;5.75;1.92;;;14.50;41.10;;;;;;5034741;28;20377;-71
2021/04/05 06:32:25;;;;;;;6.07;2.35;;;14.60;41.00;;;;;;5034494;28;20172;-72
2021/04/05 06:35:18;;;;;;;6.10;2.17;;;14.60;40.80;;;;;;5034208;28;20033;-72
2021/04/05 06:37:46;;;;;;;4.72;2.10;;;14.70;40.60;;;;;;5034103;28;20029;-71
2021/04/05 06:40:24;;;;;;;5.68;2.10;;;14.80;42.20;;;;;;5033642;28;20025;-70
2021/04/05 06:43:02;;;;;;;4.72;2.35;;;15.00;42.30;;;;;;5034080;28;20088;-71
2021/04/05 06:45:57;;;;;;;7.30;2.88;;;15.10;41.00;;;;;;5033780;28;20055;-73
2021/04/05 06:48:42;;;;;;;7.65;2.30;;;15.10;40.60;;;;;;5033918;28;20032;-70
2021/04/05 06:51:59;;;;;;;6.35;2.60;;;15.20;41.20;;;;;;5033362;28;20433;-74
2021/04/05 06:54:50;;;;;;;9.10;2.88;;;15.40;40.00;;;;;;5021939;28;20125;-72
2021/04/05 06:57:36;;;;;;;5.43;2.22;;;15.50;40.10;;;;;;5033980;28;20049;-71
2021/04/05 07:00:13;;;;;;;7.40;2.65;;;15.60;40.10;;;;;;5033587;28;20039;-69
2021/04/05 07:03:09;;;;;;;6.95;2.75;;;15.60;40.80;;;;;;5034048;28;20541;-69
2021/04/05 07:05:52;;;;;;;6.95;2.55;;;15.70;40.10;;;;;;5033732;28;20040;-69
2021/04/05 07:08:38;;;;;;;7.85;2.53;;;15.70;39.80;;;;;;5033472;28;20022;-71
2021/04/05 07:11:27;;;;;;;7.18;2.50;;;15.80;39.90;;;;;;5033282;28;20044;-71
2021/04/05 07:14:17;;;;;;;7.95;2.70;;;15.90;41.20;;;;;;5033559;28;20053;-69
2021/04/05 07:16:48;;;;;;;6.47;2.53;;;15.90;41.10;;;;;;5032174;28;20057;-71
2021/04/05 07:19:23;;;;;;;5.80;2.92;;;15.90;40.90;;;;;;5033202;28;20108;-69
2021/04/05 07:22:12;;;;;;;6.28;2.65;;;15.90;41.10;;;;;;5032956;28;20045;-73
2021/04/05 07:24:57;;;;;;;6.72;2.53;;;16.00;39.70;;;;;;5033436;28;20223;-71
2021/04/05 07:27:57;;;;;;;6.75;2.40;;;16.00;41.00;;;;;;5031213;28;20033;-73
2021/04/05 07:30:45;;;;;;;6.47;2.42;;;16.00;39.80;;;;;;5033051;28;20021;-74
2021/04/05 07:33:36;;;;;;;5.57;2.45;;;16.20;41.10;;;;;;5033170;28;20060;-74
2021/04/05 07:36:41;;;;;;;6.97;2.63;;;16.30;39.80;;;;;;5033065;28;20025;-73
2021/04/05 07:39:16;;;;;;;7.47;2.67;;;16.30;39.50;;;;;;5033391;28;20097;-70
2021/04/05 07:41:48;;;;;;;7.57;2.65;;;16.30;40.90;;;;;;5032943;28;20088;-73
2021/04/05 07:44:51;;;;;;;14.18;2.97;;;16.40;40.90;;;;;;5033380;28;20509;-71
2021/04/05 07:47:47;;;;;;;7.28;2.88;;;16.40;39.70;;;;;;5033101;28;20021;-73
2021/04/05 07:50:21;;;;;;;7.90;2.75;;;16.50;39.80;;;;;;5032997;28;20103;-72
2021/04/05 07:53:07;;;;;;;;;;;16.60;40.00;;;;;;5033353;28;20029;-73
2021/04/05 07:55:34;;;;;;;8.05;2.78;;;16.60;39.90;;;;;;5033414;28;19936;-73
2021/04/05 07:58:01;;;;;;;6.20;2.90;;;16.60;41.00;;;;;;5033181;28;20033;-74
2021/04/05 08:00:29;;;;;;;7.20;2.47;;;16.60;40.80;;;;;;5032606;28;20026;-74
2021/04/05 08:03:19;;;;;;;7.78;2.92;;;16.70;41.00;;;;;;5032629;28;20069;-73
2021/04/05 08:05:57;;;;;;;6.50;2.42;;;16.80;39.60;;;;;;5032691;28;20030;-71
2021/04/05 08:08:49;;;;;;;5.35;2.38;;;16.70;39.20;;;;;;5032866;28;20057;-73
2021/04/05 08:11:42;;;;;;;9.80;2.33;;;16.70;39.40;;;;;;5029396;28;20045;-71
2021/04/05 08:14:28;;;;;;;5.43;2.30;;;16.70;40.80;;;;;;5032770;28;20026;-72
2021/04/05 08:17:00;;;;;;;7.97;2.88;;;16.80;39.60;;;;;;5032600;28;20280;-73
2021/04/05 08:19:25;;;;;;;9.75;3.10;;;16.50;40.40;;;;;;5032685;28;20097;-74
2021/04/05 08:22:16;;;;;;;6.30;2.42;;;16.50;40.70;;;;;;5032255;28;20076;-74
2021/04/05 08:24:56;;;;;;;6.18;2.40;;;16.50;39.70;;;;;;5032932;28;20037;-73
2021/04/05 08:28:04;;;;;;;6.53;2.58;;;16.50;41.20;;;;;;5032453;28;20025;-73
2021/04/05 08:30:50;;;;;;;6.53;2.20;;;16.40;39.80;;;;;;5029482;28;20033;-75
2021/04/05 08:33:27;;;;;;;8.15;2.80;;;16.30;40.00;;;;;;5032498;28;20029;-71
2021/04/05 08:36:15;;;;;;;5.40;2.00;;;16.20;40.80;;;;;;5032183;28;20053;-73
2021/04/05 08:38:50;;;;;;;7.43;2.53;;;16.20;40.70;;;;;;5032967;28;20045;-69
2021/04/05 08:41:43;;;;;;;7.63;2.10;;;16.40;41.00;;;;;;5036166;28;20036;-73
2021/04/05 08:44:16;;;;;;;6.65;2.65;;;16.50;40.70;;;;;;5036043;28;20137;-73
2021/04/05 08:46:43;;;;;;;6.53;2.67;;;16.60;40.70;;;;;;5036074;28;20060;-71
2021/04/05 08:49:23;;;;;;;6.90;2.20;;;16.60;41.40;;;;;;5034764;28;20664;-74
2021/04/05 08:51:53;;;;;;;5.50;2.22;;;16.50;41.50;;;;;;5035795;28;20025;-71
2021/04/05 08:54:21;;;;;;;6.40;2.33;;;16.40;41.60;;;;;;5035807;28;20382;-77
2021/04/05 08:57:07;;;;;;;8.70;2.20;;;16.40;41.60;;;;;;5035856;28;20021;-73
2021/04/05 08:59:40;;;;;;;7.63;2.55;;;16.40;41.00;;;;;;5035849;28;20026;-73
2021/04/05 09:02:21;;;;;;;;;;;16.60;42.20;;;;;;5035969;28;20171;-76
2021/04/05 09:04:49;;;;;;;6.38;2.08;;;16.60;41.40;;;;;;5035584;28;20017;-72
2021/04/05 09:07:33;;;;;;;6.80;2.30;;;16.60;42.60;;;;;;5035859;28;20017;-74
2021/04/05 09:10:03;;;;;;;;;;;16.70;41.90;;;;;;5036426;28;20026;-71
2021/04/05 09:12:30;;;;;;;11.95;2.08;;;16.80;43.20;;;;;;5035900;28;20380;-76
2021/04/05 09:15:27;;;;;;;10.20;2.58;;;16.90;42.70;;;;;;5035419;28;20032;-73
2021/04/05 09:18:20;;;;;;;11.70;2.95;;;17.00;41.80;;;;;;5035588;28;20021;-72
2021/04/05 09:21:08;;;;;;;4.85;2.15;;;17.10;41.80;;;;;;5035186;28;20087;-74
2021/04/05 09:23:50;;;;;;;6.88;2.38;;;17.20;42.80;;;;;;5035460;28;20083;-74
2021/04/05 09:26:40;;;;;;;13.52;2.60;;;17.20;42.00;;;;;;5035633;28;20493;-73
2021/04/05 09:29:25;;;;;;;8.43;2.38;;;17.20;42.10;;;;;;5035268;28;20028;-74
2021/04/05 09:32:09;;;;;;;23.20;11.40;;;17.30;42.20;;;;;;5035134;28;20052;-73
2021/04/05 09:34:53;;;;;;;42.45;25.90;;;17.40;42.00;;;;;;5034869;28;20029;-70
2021/04/05 09:37:51;;;;;;;9.98;4.32;;;17.50;41.80;;;;;;5035152;28;20026;-73
2021/04/05 09:40:37;;;;;;;7.25;3.05;;;17.60;41.90;;;;;;5027385;28;20037;-75
2021/04/05 09:43:13;;;;;;;9.80;2.40;;;17.80;42.10;;;;;;5034977;28;20056;-73
2021/04/05 09:45:44;;;;;;;7.47;2.72;;;17.90;41.80;;;;;;5034691;28;20052;-74
2021/04/05 09:48:09;;;;;;;7.60;2.60;;;18.10;42.60;;;;;;5034954;28;20022;-74
2021/04/05 09:51:00;;;;;;;8.90;3.40;;;18.20;42.30;;;;;;5034191;28;20364;-75
2021/04/05 09:53:43;;;;;;;7.20;2.58;;;18.30;42.20;;;;;;5033499;28;20026;-70
2021/04/05 09:56:19;;;;;;;11.38;2.70;;;18.50;41.40;;;;;;5034342;28;20366;-70
2021/04/05 09:58:56;;;;;;;10.98;2.60;;;18.60;41.90;;;;;;5017503;28;20021;-71
2021/04/05 10:01:29;;;;;;;6.80;2.17;;;18.80;41.70;;;;;;5034665;28;20049;-72
2021/04/05 10:04:02;;;;;;;8.23;2.20;;;18.70;41.70;;;;;;5034535;28;20041;-72
2021/04/05 10:06:33;;;;;;;7.90;2.92;;;18.70;41.80;;;;;;5035051;28;20026;-74
2021/04/05 10:09:00;;;;;;;10.23;2.95;;;18.70;41.70;;;;;;5034479;28;20033;-72
2021/04/05 10:11:32;;;;;;;7.22;2.90;;;18.70;41.90;;;;;;5034450;28;20075;-74
2021/04/05 10:14:04;;;;;;;8.48;2.70;;;18.70;41.90;;;;;;5034342;28;20446;-71
2021/04/05 10:16:32;;;;;;;6.95;2.60;;;18.60;42.10;;;;;;5034519;28;20025;-73
2021/04/05 10:19:10;;;;;;;8.90;3.13;;;18.50;41.80;;;;;;5034294;28;20025;-73
2021/04/05 10:21:50;;;;;;;9.98;3.13;;;18.40;42.10;;;;;;5034255;28;20388;-73
2021/04/05 10:24:22;;;;;;;7.07;2.28;;;18.30;42.00;;;;;;5034353;28;20064;-75
2021/04/05 10:26:52;;;;;;;7.10;2.78;;;18.30;41.40;;;;;;5034449;28;20025;-72
2021/04/05 10:29:19;;;;;;;7.85;2.70;;;18.20;42.00;;;;;;5034173;28;20033;-74
2021/04/05 10:31:48;;;;;;;12.95;6.65;;;18.20;42.00;;;;;;5033850;28;20021;-74
2021/04/05 10:34:16;;;;;;;11.05;4.47;;;18.10;41.70;;;;;;5033861;28;20026;-75
2021/04/05 10:36:48;;;;;;;8.73;3.58;;;18.10;41.80;;;;;;5034048;28;20075;-76
2021/04/05 10:39:15;;;;;;;8.27;2.47;;;18.10;41.80;;;;;;5032783;28;20029;-73
2021/04/05 10:41:49;;;;;;;9.20;2.00;;;18.10;41.50;;;;;;5033819;28;20072;-72
2021/04/05 10:44:17;;;;;;;10.48;2.50;;;18.10;41.20;;;;;;5033996;28;20034;-71
2021/04/05 10:46:48;;;;;;;5.28;1.83;;;18.10;41.10;;;;;;5033670;28;20056;-72
2021/04/05 10:49:17;;;;;;;7.80;2.55;;;18.00;41.40;;;;;;5034015;28;20057;-72
2021/04/05 10:51:49;;;;;;;7.60;2.20;;;17.80;42.00;;;;;;5033586;28;20036;-73
2021/04/05 10:54:19;;;;;;;8.93;2.88;;;17.70;42.40;;;;;;5033385;28;20079;-70
2021/04/05 10:56:50;;;;;;;7.13;2.42;;;17.80;42.30;;;;;;5033954;28;20056;-71
2021/04/05 10:59:25;;;;;;;9.80;2.95;;;17.90;42.60;;;;;;5033624;28;20057;-72
2021/04/05 11:01:58;;;;;;;9.00;2.67;;;18.00;42.60;;;;;;5033419;28;20049;-73
2021/04/05 11:04:26;;;;;;;9.43;2.85;;;18.00;42.70;;;;;;5033289;28;20037;-73
2021/04/05 11:06:55;;;;;;;6.93;2.53;;;18.00;42.40;;;;;;5033403;28;20045;-73
2021/04/05 11:09:23;;;;;;;10.50;3.05;;;18.00;42.60;;;;;;5033604;28;20057;-72
2021/04/05 11:11:52;;;;;;;7.22;2.65;;;17.80;42.60;;;;;;5033738;28;20382;-71
2021/04/05 11:14:20;;;;;;;6.80;3.17;;;17.90;42.90;;;;;;5034018;28;20036;-73
2021/04/05 11:16:53;;;;;;;8.68;3.25;;;17.90;42.70;;;;;;5033405;28;20052;-68
2021/04/05 11:19:50;;;;;;;6.90;2.83;;;18.00;42.70;;;;;;5033377;28;20029;-69
2021/04/05 11:22:23;;;;;;;6.88;2.95;;;18.00;42.90;;;;;;5031175;28;20045;-72
2021/04/05 11:25:05;;;;;;;11.77;4.30;;;18.10;42.70;;;;;;5033127;28;20199;-71
2021/04/05 11:27:37;;;;;;;8.63;2.60;;;18.20;42.60;;;;;;5032008;28;20033;-71
2021/04/05 11:30:05;;;;;;;6.70;2.83;;;18.30;42.50;;;;;;5032802;28;20025;-71
2021/04/05 11:32:33;;;;;;;9.98;3.67;;;18.30;42.30;;;;;;5033194;28;20169;-70
2021/04/05 11:35:03;;;;;;;7.50;3.30;;;18.30;42.60;;;;;;5033181;28;20565;-74
2021/04/05 11:37:35;;;;;;;7.85;2.88;;;18.40;42.50;;;;;;5033168;28;20029;-74
2021/04/05 11:40:12;;;;;;;10.82;3.30;;;18.40;42.10;;;;;;5032997;28;20304;-71
2021/04/05 11:42:46;;;;;;;9.77;3.28;;;18.40;42.00;;;;;;5033189;28;20056;-69
2021/04/05 11:45:17;;;;;;;9.27;3.22;;;18.40;42.00;;;;;;5033314;28;20115;-71
2021/04/05 11:47:50;;;;;;;7.43;2.92;;;18.30;42.10;;;;;;5032926;28;20022;-70
2021/04/05 11:50:17;;;;;;;9.30;6.72;;;18.30;42.20;;;;;;5032934;28;20034;-70
2021/04/05 11:52:53;;;;;;;11.02;3.33;;;18.40;42.00;;;;;;5032713;28;20056;-68
2021/04/05 11:55:28;;;;;;;7.47;3.33;;;18.40;42.00;;;;;;5032831;28;20178;-72
2021/04/05 11:58:02;;;;;;;14.80;7.20;;;18.40;41.90;;;;;;5031558;28;20068;-69
2021/04/05 12:00:40;;;;;;;10.18;5.20;;;18.50;41.30;;;;;;5031390;28;20233;-69
2021/04/05 12:03:13;;;;;;;6.35;3.20;;;18.50;40.90;;;;;;5032518;28;20048;-73
2021/04/05 12:05:46;;;;;;;6.93;3.10;;;18.50;41.60;;;;;;5033708;28;20466;-73
2021/04/05 12:08:20;;;;;;;8.10;3.15;;;18.40;41.30;;;;;;5032664;28;20421;-75
2021/04/05 12:10:49;;;;;;;5.82;2.53;;;18.50;40.70;;;;;;5032505;28;20036;-72
2021/04/05 12:13:19;;;;;;;8.00;2.80;;;18.60;41.10;;;;;;5032730;28;20063;-71
2021/04/05 12:15:54;;;;;;;8.05;3.97;;;18.60;40.70;;;;;;5036330;28;20033;-75
2021/04/05 12:18:22;;;;;;;12.20;5.68;;;18.70;40.60;;;;;;5036804;28;20025;-70
2021/04/05 12:20:57;;;;;;;5.40;2.65;;;18.80;40.60;;;;;;5036257;28;20439;-69
2021/04/05 12:23:24;;;;;;;10.50;3.78;;;18.90;40.20;;;;;;5036360;28;20443;-73
2021/04/05 12:25:51;;;;;;;13.77;4.55;;;18.90;40.10;;;;;;5036526;28;20029;-71
2021/04/05 12:28:18;;;;;;;8.35;3.10;;;18.90;39.90;;;;;;5036742;28;20481;-69
2021/04/05 12:30:45;;;;;;;7.88;3.08;;;18.90;39.40;;;;;;5036197;28;20017;-70
2021/04/05 12:33:15;;;;;;;10.45;2.47;;;18.90;39.60;;;;;;5036735;28;20026;-71
2021/04/05 12:35:42;;;;;;;7.38;2.33;;;18.90;39.30;;;;;;5035000;28;20504;-74
2021/04/05 12:38:10;;;;;;;8.05;2.55;;;19.00;39.40;;;;;;5036232;28;20443;-70
2021/04/05 12:40:38;;;;;;;8.88;2.78;;;19.10;39.40;;;;;;5035799;28;20116;-71
2021/04/05 12:43:15;;;;;;;7.00;2.78;;;19.10;39.40;;;;;;5036079;28;20026;-70
2021/04/05 12:45:50;;;;;;;5.80;2.50;;;19.20;39.40;;;;;;5036378;28;20040;-70
2021/04/05 12:48:25;;;;;;;6.57;2.40;;;19.20;39.00;;;;;;5035979;28;20056;-72
2021/04/05 12:51:02;;;;;;;5.20;2.40;;;19.30;39.20;;;;;;5034483;28;20029;-70
2021/04/05 12:53:30;;;;;;;5.93;1.90;;;19.30;39.00;;;;;;5036128;28;20025;-75
2021/04/05 12:55:58;;;;;;;5.03;1.90;;;19.30;38.90;;;;;;5034562;28;20483;-73
2021/04/05 12:58:35;;;;;;;6.32;1.90;;;19.30;38.90;;;;;;5035835;28;20078;-75
2021/04/05 13:01:05;;;;;;;4.68;1.90;;;19.30;38.50;;;;;;5035952;28;20083;-75
2021/04/05 13:03:38;;;;;;;8.15;2.05;;;19.30;38.70;;;;;;5035579;28;20025;-75
2021/04/05 13:06:06;;;;;;;6.07;2.17;;;19.30;38.10;;;;;;5036090;28;20375;-75
2021/04/05 13:08:35;;;;;;;7.25;2.20;;;19.20;38.70;;;;;;5035994;28;20026;-73
2021/04/05 13:11:26;;;;;;;5.05;1.90;;;19.20;38.90;;;;;;5035705;28;20029;-73
2021/04/05 13:14:09;;;;;;;4.05;1.88;;;19.20;39.20;;;;;;5035069;28;20034;-76
2021/04/05 13:16:39;;;;;;;5.43;1.98;;;19.10;39.00;;;;;;5035529;28;20026;-70
2021/04/05 13:19:14;;;;;;;6.45;2.00;;;19.20;38.50;;;;;;5035683;28;20029;-73
2021/04/05 13:21:42;;;;;;;8.90;1.98;;;19.20;39.00;;;;;;5035397;28;20077;-74